createdAt,value
2019-01-09T00:00:35.300Z,-6.52
2019-01-09T00:03:03.010Z,-6.62
2019-01-09T00:05:30.577Z,-6.46
2019-01-09T00:07:58.064Z,-6.36
2019-01-09T00:10:25.558Z,-6.46
2019-01-09T00:12:53.150Z,-6.62
2019-01-09T00:15:20.676Z,-6.65
2019-01-09T00:17:48.174Z,-6.72
2019-01-09T00:20:15.642Z,-6.74
2019-01-09T00:22:43.145Z,-6.72
2019-01-09T00:25:10.630Z,-6.63
2019-01-09T00:27:38.202Z,-6.64
2019-01-09T00:30:05.935Z,-6.67
2019-01-09T00:32:34.283Z,-6.70
2019-01-09T00:35:01.831Z,-6.61
2019-01-09T00:37:29.328Z,-6.39
2019-01-09T00:39:56.826Z,-6.32
2019-01-09T00:42:24.495Z,-6.44
2019-01-09T00:44:52.101Z,-6.48
2019-01-09T00:47:19.637Z,-6.53
2019-01-09T00:49:47.131Z,-6.62
2019-01-09T00:52:14.650Z,-6.60
2019-01-09T00:54:42.183Z,-6.66
2019-01-09T00:57:09.775Z,-6.69
2019-01-09T00:59:37.433Z,-6.59
2019-01-09T01:02:45.343Z,-6.51
2019-01-09T01:05:49.770Z,-6.57
2019-01-09T01:09:06.755Z,-6.74
2019-01-09T01:12:04.496Z,-6.71
2019-01-09T01:15:12.356Z,-6.78
2019-01-09T01:18:21.660Z,-6.75
2019-01-09T01:21:08.404Z,-6.79
2019-01-09T01:24:35.602Z,-6.76
2019-01-09T01:27:11.511Z,-6.75
2019-01-09T01:30:16.641Z,-6.77
2019-01-09T01:33:01.204Z,-6.87
2019-01-09T01:36:15.148Z,-6.76
2019-01-09T01:39:20.601Z,-6.83
2019-01-09T01:42:14.437Z,-6.84
2019-01-09T01:45:13.821Z,-6.89
2019-01-09T01:48:15.500Z,-6.80
2019-01-09T01:51:23.410Z,-6.73
2019-01-09T01:54:19.585Z,-6.59
2019-01-09T01:57:07.919Z,-6.70
2019-01-09T02:00:01.103Z,-6.68
2019-01-09T02:03:06.254Z,-6.67
2019-01-09T02:05:49.097Z,-6.64
2019-01-09T02:08:54.168Z,-6.63
2019-01-09T02:11:56.059Z,-6.71
2019-01-09T02:15:08.106Z,-6.70
2019-01-09T02:17:44.492Z,-6.63
2019-01-09T02:20:48.852Z,-6.62
2019-01-09T02:23:43.138Z,-6.59
2019-01-09T02:26:35.051Z,-6.70
2019-01-09T02:29:12.991Z,-6.71
2019-01-09T02:31:52.089Z,-6.73
2019-01-09T02:34:19.702Z,-6.80
2019-01-09T02:36:47.156Z,-6.77
2019-01-09T02:39:14.647Z,-6.79
2019-01-09T02:41:42.115Z,-6.84
2019-01-09T02:44:09.656Z,-6.93
2019-01-09T02:46:37.283Z,-7.01
2019-01-09T02:49:04.819Z,-6.99
2019-01-09T02:51:32.429Z,-6.99
2019-01-09T02:53:59.947Z,-7.03
2019-01-09T02:56:27.422Z,-6.96
2019-01-09T02:58:54.980Z,-6.96
2019-01-09T03:01:22.446Z,-6.94
2019-01-09T03:03:49.927Z,-6.94
2019-01-09T03:06:22.992Z,-6.94
2019-01-09T03:08:46.873Z,-6.89
2019-01-09T03:11:14.822Z,-6.88
2019-01-09T03:13:44.262Z,-6.83
2019-01-09T03:16:12.234Z,-6.79
2019-01-09T03:18:39.881Z,-6.80
2019-01-09T03:21:07.528Z,-6.93
2019-01-09T03:23:35.163Z,-6.90
2019-01-09T03:26:02.814Z,-6.88
2019-01-09T03:28:30.422Z,-6.77
2019-01-09T03:30:58.209Z,-6.72
2019-01-09T03:33:26.231Z,-6.73
2019-01-09T03:35:53.732Z,-6.71
2019-01-09T03:38:21.313Z,-6.63
2019-01-09T03:40:48.797Z,-6.83
2019-01-09T03:43:16.308Z,-6.77
2019-01-09T03:45:43.833Z,-6.72
2019-01-09T03:48:11.345Z,-6.85
2019-01-09T03:50:38.811Z,-6.88
2019-01-09T03:53:06.333Z,-6.91
2019-01-09T03:55:33.797Z,-6.70
2019-01-09T03:58:01.354Z,-6.74
2019-01-09T04:00:28.784Z,-6.70
2019-01-09T04:02:56.350Z,-6.74
2019-01-09T04:05:24.099Z,-6.78
2019-01-09T04:07:51.618Z,-6.79
2019-01-09T04:10:19.075Z,-6.80
2019-01-09T04:12:46.551Z,-6.87
2019-01-09T04:15:14.141Z,-6.83
2019-01-09T04:17:41.827Z,-6.79
2019-01-09T04:20:09.326Z,-6.65
2019-01-09T04:22:36.782Z,-6.69
2019-01-09T04:25:04.433Z,-6.72
2019-01-09T04:27:31.936Z,-6.66
2019-01-09T04:29:59.462Z,-6.62
2019-01-09T04:32:26.968Z,-6.49
2019-01-09T04:34:54.434Z,-6.18
2019-01-09T04:37:21.934Z,-6.07
2019-01-09T04:39:49.424Z,-6.12
2019-01-09T04:42:16.900Z,-6.04
2019-01-09T04:44:44.387Z,-6.10
2019-01-09T04:47:11.956Z,-6.05
2019-01-09T04:49:39.450Z,-6.03
2019-01-09T04:52:06.963Z,-6.26
2019-01-09T04:54:34.482Z,-6.25
2019-01-09T04:57:02.118Z,-6.32
2019-01-09T04:59:29.662Z,-6.31
2019-01-09T05:01:57.290Z,-6.34
2019-01-09T05:04:24.851Z,-6.63
2019-01-09T05:07:00.319Z,-6.89
2019-01-09T05:09:21.835Z,-6.98
2019-01-09T05:11:49.477Z,-7.17
2019-01-09T05:14:16.955Z,-7.16
2019-01-09T05:16:44.487Z,-7.17
2019-01-09T05:19:11.999Z,-7.33
2019-01-09T05:21:39.500Z,-7.60
2019-01-09T05:24:07.017Z,-7.83
2019-01-09T05:26:34.570Z,-8.03
2019-01-09T05:29:02.149Z,-8.12
2019-01-09T05:31:29.669Z,-8.06
2019-01-09T05:33:57.274Z,-8.09
2019-01-09T05:36:24.977Z,-8.21
2019-01-09T05:38:52.593Z,-8.41
2019-01-09T05:41:20.168Z,-8.46
2019-01-09T05:43:47.779Z,-8.52
2019-01-09T05:46:15.590Z,-8.62
2019-01-09T05:48:43.238Z,-8.69
2019-01-09T05:51:10.848Z,-8.76
2019-01-09T05:53:38.344Z,-8.70
2019-01-09T05:56:05.997Z,-8.71
2019-01-09T05:58:33.667Z,-8.72
2019-01-09T06:01:01.151Z,-8.79
2019-01-09T06:03:28.791Z,-8.79
2019-01-09T06:05:56.339Z,-8.82
2019-01-09T06:08:24.045Z,-8.84
2019-01-09T06:10:52.028Z,-8.80
2019-01-09T06:13:19.715Z,-8.82
2019-01-09T06:15:47.352Z,-8.76
2019-01-09T06:18:14.842Z,-8.68
2019-01-09T06:20:42.646Z,-8.60
2019-01-09T06:23:10.302Z,-8.61
2019-01-09T06:25:37.913Z,-8.55
2019-01-09T06:28:05.814Z,-8.53
2019-01-09T06:30:33.425Z,-8.59
2019-01-09T06:33:01.047Z,-8.61
2019-01-09T06:35:28.705Z,-8.55
2019-01-09T06:37:56.500Z,-8.49
2019-01-09T06:40:24.466Z,-8.38
2019-01-09T06:42:52.538Z,-8.19
2019-01-09T06:45:20.443Z,-8.01
2019-01-09T06:47:48.217Z,-7.88
2019-01-09T06:50:18.104Z,-7.66
2019-01-09T06:52:46.017Z,-7.56
2019-01-09T06:55:13.920Z,-7.38
2019-01-09T06:57:41.507Z,-7.15
2019-01-09T07:00:09.382Z,-6.96
2019-01-09T07:02:36.925Z,-6.90
2019-01-09T07:05:05.093Z,-6.75
2019-01-09T07:07:36.177Z,-6.70
2019-01-09T07:10:02.958Z,-6.53
2019-01-09T07:12:30.924Z,-6.40
2019-01-09T07:14:58.869Z,-6.45
2019-01-09T07:17:26.619Z,-6.30
2019-01-09T07:19:54.286Z,-6.19
2019-01-09T07:22:21.952Z,-5.83
2019-01-09T07:24:49.649Z,-5.88
2019-01-09T07:27:17.785Z,-5.88
2019-01-09T07:29:45.465Z,-5.65
2019-01-09T07:32:13.419Z,-5.23
2019-01-09T07:34:41.174Z,-5.08
2019-01-09T07:37:09.035Z,-4.96
2019-01-09T07:39:36.653Z,-4.79
2019-01-09T07:42:04.447Z,-4.64
2019-01-09T07:44:32.398Z,-4.40
2019-01-09T07:47:00.065Z,-4.26
2019-01-09T07:49:27.885Z,-3.86
2019-01-09T07:51:55.632Z,-3.52
2019-01-09T07:54:23.484Z,-3.55
2019-01-09T07:56:51.074Z,-3.42
2019-01-09T07:59:19.155Z,-3.74
2019-01-09T08:01:47.188Z,-3.54
2019-01-09T08:04:14.977Z,-3.73
2019-01-09T08:06:42.574Z,-3.80
2019-01-09T08:09:10.472Z,-3.89
2019-01-09T08:11:38.166Z,-3.89
2019-01-09T08:14:05.756Z,-3.85
2019-01-09T08:16:33.502Z,-3.62
2019-01-09T08:19:01.270Z,-3.75
2019-01-09T08:21:28.949Z,-3.46
2019-01-09T08:23:56.700Z,-3.44
2019-01-09T08:26:24.454Z,-3.38
2019-01-09T08:28:52.131Z,-3.20
2019-01-09T08:31:19.932Z,-3.23
2019-01-09T08:33:47.592Z,-3.15
2019-01-09T08:36:15.542Z,-3.03
2019-01-09T08:38:43.413Z,-3.15
2019-01-09T08:41:11.915Z,-3.18
2019-01-09T08:43:40.193Z,-2.57
2019-01-09T08:46:08.268Z,-2.76
2019-01-09T08:48:36.565Z,-2.80
2019-01-09T08:51:04.322Z,-2.96
2019-01-09T08:53:32.086Z,-2.93
2019-01-09T08:56:00.073Z,-2.86
2019-01-09T08:58:27.852Z,-2.92
2019-01-09T09:00:55.623Z,-3.04
2019-01-09T09:03:23.559Z,-2.72
2019-01-09T09:05:51.585Z,-2.42
2019-01-09T09:08:19.967Z,-2.72
2019-01-09T09:10:48.282Z,-2.65
2019-01-09T09:13:38.310Z,-2.45
2019-01-09T09:16:07.710Z,-1.95
2019-01-09T09:18:35.486Z,-2.71
2019-01-09T09:21:03.296Z,-2.65
2019-01-09T09:23:31.147Z,-2.87
2019-01-09T09:25:58.889Z,-2.85
2019-01-09T09:28:26.820Z,-2.69
2019-01-09T09:30:54.825Z,-2.87
2019-01-09T09:33:22.741Z,-2.76
2019-01-09T09:35:50.795Z,-2.94
2019-01-09T09:38:20.761Z,-3.27
2019-01-09T09:40:48.729Z,-3.16
2019-01-09T09:43:17.046Z,-3.37
2019-01-09T09:45:44.974Z,-3.34
2019-01-09T09:48:12.868Z,-3.09
2019-01-09T09:50:40.782Z,-2.98
2019-01-09T09:53:08.752Z,-2.87
2019-01-09T09:55:37.068Z,-3.24
2019-01-09T09:58:05.980Z,-3.36
2019-01-09T10:00:34.197Z,-3.17
2019-01-09T10:03:02.261Z,-2.98
2019-01-09T10:05:30.985Z,-2.73
2019-01-09T10:07:59.133Z,-2.33
2019-01-09T10:10:27.013Z,-2.34
2019-01-09T10:12:55.004Z,-2.46
2019-01-09T10:15:22.802Z,-2.60
2019-01-09T10:17:50.585Z,-2.77
2019-01-09T10:20:18.577Z,-2.69
2019-01-09T10:22:48.169Z,-2.48
2019-01-09T10:25:16.381Z,-2.38
2019-01-09T10:27:44.278Z,-2.50
2019-01-09T10:30:14.835Z,-2.31
2019-01-09T10:32:42.592Z,-2.07
2019-01-09T10:35:10.517Z,-2.20
2019-01-09T10:37:38.340Z,-2.22
2019-01-09T10:40:07.585Z,-2.22
2019-01-09T10:42:35.356Z,-2.43
2019-01-09T10:45:03.391Z,-2.29
2019-01-09T10:47:31.179Z,-2.29
2019-01-09T10:49:59.019Z,-2.23
2019-01-09T10:52:26.713Z,-2.06
2019-01-09T10:54:54.378Z,-1.91
2019-01-09T10:57:22.078Z,-2.06
2019-01-09T10:59:49.783Z,-2.37
2019-01-09T11:02:17.294Z,-2.39
2019-01-09T11:04:45.157Z,-2.39
2019-01-09T11:07:12.822Z,-2.41
2019-01-09T11:09:40.513Z,-2.58
2019-01-09T11:12:08.281Z,-2.63
2019-01-09T11:14:36.016Z,-2.53
2019-01-09T11:17:03.687Z,-3.06
2019-01-09T11:19:31.257Z,-3.06
2019-01-09T11:21:58.808Z,-2.78
2019-01-09T11:24:26.533Z,-2.58
2019-01-09T11:26:54.253Z,-2.33
2019-01-09T11:29:21.993Z,-2.25
2019-01-09T11:31:49.541Z,-2.27
2019-01-09T11:34:17.208Z,-2.21
2019-01-09T11:36:45.010Z,-2.59
2019-01-09T11:39:12.758Z,-2.45
2019-01-09T11:41:40.351Z,-2.28
2019-01-09T11:44:08.017Z,-1.86
2019-01-09T11:46:35.909Z,-1.62
2019-01-09T11:49:03.669Z,-1.60
2019-01-09T11:51:31.359Z,-2.10
2019-01-09T11:53:59.078Z,-2.20
2019-01-09T11:56:26.675Z,-1.96
2019-01-09T11:58:54.429Z,-1.81
2019-01-09T12:01:22.050Z,-1.80
2019-01-09T12:03:49.834Z,-1.79
2019-01-09T12:06:17.817Z,-2.15
2019-01-09T12:08:45.670Z,-2.10
2019-01-09T12:11:13.929Z,-1.98
2019-01-09T12:13:41.954Z,-2.07
2019-01-09T12:16:10.770Z,-2.04
2019-01-09T12:18:39.068Z,-2.08
2019-01-09T12:21:16.546Z,-2.02
2019-01-09T12:23:36.769Z,-2.05
2019-01-09T12:26:04.772Z,-2.18
2019-01-09T12:28:33.163Z,-1.89
2019-01-09T12:31:02.228Z,-1.71
2019-01-09T12:33:30.106Z,-1.63
2019-01-09T12:35:58.292Z,-1.77
2019-01-09T12:38:27.094Z,-1.83
2019-01-09T12:40:55.020Z,-1.94
2019-01-09T12:43:23.946Z,-1.95
2019-01-09T12:45:52.187Z,-2.07
2019-01-09T12:48:20.152Z,-2.04
2019-01-09T12:50:48.094Z,-2.23
2019-01-09T12:53:15.913Z,-2.37
2019-01-09T12:55:43.830Z,-2.73
2019-01-09T12:58:11.791Z,-2.80
2019-01-09T13:00:39.856Z,-2.96
2019-01-09T13:03:07.766Z,-3.02
2019-01-09T13:05:35.678Z,-2.93
2019-01-09T13:08:04.044Z,-3.06
2019-01-09T13:10:31.940Z,-3.26
2019-01-09T13:13:00.037Z,-3.10
2019-01-09T13:15:27.950Z,-3.05
2019-01-09T13:17:55.818Z,-3.01
2019-01-09T13:20:23.649Z,-3.06
2019-01-09T13:22:51.458Z,-3.17
2019-01-09T13:25:19.398Z,-3.33
2019-01-09T13:27:47.252Z,-3.34
2019-01-09T13:30:20.111Z,-3.32
2019-01-09T13:32:48.036Z,-3.22
2019-01-09T13:35:17.107Z,-3.22
2019-01-09T13:37:45.481Z,-3.20
2019-01-09T13:40:18.198Z,-3.15
2019-01-09T13:42:46.416Z,-3.11
2019-01-09T13:45:16.630Z,-3.00
2019-01-09T13:47:44.615Z,-2.97
2019-01-09T13:50:12.854Z,-2.95
2019-01-09T13:52:40.863Z,-3.01
2019-01-09T13:55:10.176Z,-2.91
2019-01-09T13:57:38.166Z,-2.87
2019-01-09T14:00:09.063Z,-2.93
2019-01-09T14:02:37.036Z,-2.93
2019-01-09T14:05:06.057Z,-3.04
2019-01-09T14:07:33.948Z,-3.03
2019-01-09T14:10:01.813Z,-3.03
2019-01-09T14:12:29.581Z,-2.97
2019-01-09T14:14:57.515Z,-2.95
2019-01-09T14:17:25.577Z,-2.96
2019-01-09T14:19:53.507Z,-3.02
2019-01-09T14:22:21.438Z,-3.11
2019-01-09T14:24:49.757Z,-3.21
2019-01-09T14:27:17.825Z,-3.19
2019-01-09T14:29:45.853Z,-3.23
2019-01-09T14:32:13.797Z,-3.32
2019-01-09T14:34:41.851Z,-3.29
2019-01-09T14:37:09.552Z,-3.34
2019-01-09T14:39:37.276Z,-3.30
2019-01-09T14:42:04.852Z,-3.27
2019-01-09T14:44:32.563Z,-3.30
2019-01-09T14:47:00.216Z,-3.38
2019-01-09T14:49:27.954Z,-3.46
2019-01-09T14:51:55.888Z,-3.56
2019-01-09T14:54:23.608Z,-3.47
2019-01-09T14:56:51.274Z,-3.56
2019-01-09T14:59:19.028Z,-3.65
2019-01-09T15:01:46.785Z,-3.83
2019-01-09T15:04:14.527Z,-3.82
2019-01-09T15:06:42.150Z,-3.83
2019-01-09T15:09:09.927Z,-3.75
2019-01-09T15:11:37.692Z,-3.83
2019-01-09T15:14:05.878Z,-3.75
2019-01-09T15:16:33.730Z,-3.62
2019-01-09T15:19:01.455Z,-3.57
2019-01-09T15:21:29.172Z,-3.53
2019-01-09T15:23:56.966Z,-3.54
2019-01-09T15:26:24.590Z,-3.54
2019-01-09T15:28:52.487Z,-3.59
2019-01-09T15:31:20.349Z,-3.49
2019-01-09T15:33:48.119Z,-3.56
2019-01-09T15:36:17.155Z,-3.65
2019-01-09T15:38:45.014Z,-3.69
2019-01-09T15:41:12.830Z,-3.76
2019-01-09T15:43:40.669Z,-3.78
2019-01-09T15:46:08.451Z,-3.71
2019-01-09T15:48:36.235Z,-3.69
2019-01-09T15:51:03.913Z,-3.65
2019-01-09T15:53:31.764Z,-3.63
2019-01-09T15:55:59.661Z,-3.71
2019-01-09T15:58:27.883Z,-3.72
2019-01-09T16:00:57.219Z,-3.66
2019-01-09T16:03:24.985Z,-3.64
2019-01-09T16:05:53.026Z,-3.62
2019-01-09T16:08:20.834Z,-3.65
2019-01-09T16:10:48.704Z,-3.62
2019-01-09T16:13:16.434Z,-3.58
2019-01-09T16:15:44.773Z,-3.60
2019-01-09T16:18:12.610Z,-3.64
2019-01-09T16:20:41.051Z,-3.70
2019-01-09T16:23:09.240Z,-3.68
2019-01-09T16:25:37.156Z,-3.68
2019-01-09T16:28:06.254Z,-3.77
2019-01-09T16:30:51.247Z,-3.74
2019-01-09T16:33:19.008Z,-3.77
2019-01-09T16:35:46.623Z,-3.84
2019-01-09T16:38:14.490Z,-3.74
2019-01-09T16:40:42.066Z,-3.78
2019-01-09T16:43:09.719Z,-3.74
2019-01-09T16:45:37.604Z,-3.79
2019-01-09T16:48:05.412Z,-3.77
2019-01-09T16:50:33.240Z,-3.81
2019-01-09T16:53:00.935Z,-3.87
2019-01-09T16:55:28.762Z,-3.84
2019-01-09T16:57:56.649Z,-3.92
2019-01-09T17:00:26.393Z,-3.91
2019-01-09T17:02:54.214Z,-3.98
2019-01-09T17:05:22.298Z,-3.94
2019-01-09T17:07:50.794Z,-4.07
2019-01-09T17:10:19.777Z,-4.13
2019-01-09T17:12:51.711Z,-4.13
2019-01-09T17:15:24.146Z,-4.17
2019-01-09T17:17:54.434Z,-4.23
2019-01-09T17:20:24.935Z,-4.23
2019-01-09T17:22:55.744Z,-4.19
2019-01-09T17:25:25.491Z,-4.32
2019-01-09T17:27:53.585Z,-4.25
2019-01-09T17:30:23.413Z,-4.23
2019-01-09T17:32:51.095Z,-4.23
2019-01-09T17:35:18.897Z,-4.22
2019-01-09T17:37:46.654Z,-4.35
2019-01-09T17:40:15.149Z,-4.33
2019-01-09T17:42:43.192Z,-4.29
2019-01-09T17:45:11.306Z,-4.40
2019-01-09T17:47:38.966Z,-4.36
2019-01-09T17:50:13.485Z,-4.41
2019-01-09T17:52:41.180Z,-4.47
2019-01-09T17:55:10.076Z,-4.42
2019-01-09T17:57:37.815Z,-4.36
2019-01-09T18:00:09.475Z,-4.41
2019-01-09T18:02:37.373Z,-4.32
2019-01-09T18:05:05.307Z,-4.36
2019-01-09T18:07:33.312Z,-4.37
2019-01-09T18:10:01.120Z,-4.44
2019-01-09T18:12:28.747Z,-4.41
2019-01-09T18:14:56.592Z,-4.36
2019-01-09T18:17:24.482Z,-4.35
2019-01-09T18:19:52.645Z,-4.33
2019-01-09T18:22:20.758Z,-4.26
2019-01-09T18:24:48.488Z,-4.16
2019-01-09T18:27:16.318Z,-4.24
2019-01-09T18:29:44.645Z,-4.21
2019-01-09T18:32:24.636Z,-4.17
2019-01-09T18:35:09.652Z,-4.21
2019-01-09T18:38:15.772Z,-4.25
2019-01-09T18:41:08.767Z,-4.17
2019-01-09T18:44:14.141Z,-4.15
2019-01-09T18:47:15.640Z,-4.09
2019-01-09T18:50:12.861Z,-4.03
2019-01-09T18:53:12.887Z,-3.98
2019-01-09T18:55:41.136Z,-4.02
2019-01-09T18:58:09.299Z,-3.98
2019-01-09T19:00:37.497Z,-3.98
2019-01-09T19:03:05.653Z,-3.92
2019-01-09T19:05:34.004Z,-3.91
2019-01-09T19:08:02.132Z,-3.90
2019-01-09T19:10:30.291Z,-3.82
2019-01-09T19:12:58.561Z,-3.82
2019-01-09T19:15:26.629Z,-3.75
2019-01-09T19:17:54.919Z,-3.67
2019-01-09T19:20:23.085Z,-3.70
2019-01-09T19:22:51.556Z,-3.75
2019-01-09T19:25:19.813Z,-3.73
2019-01-09T19:27:47.907Z,-3.74
2019-01-09T19:30:22.795Z,-3.69
2019-01-09T19:32:50.915Z,-3.71
2019-01-09T19:35:18.977Z,-3.69
2019-01-09T19:37:47.030Z,-3.67
2019-01-09T19:40:15.116Z,-3.71
2019-01-09T19:42:43.505Z,-3.81
2019-01-09T19:45:12.014Z,-3.79
2019-01-09T19:47:40.159Z,-3.81
2019-01-09T19:50:10.223Z,-3.73
2019-01-09T19:52:38.347Z,-3.74
2019-01-09T19:55:07.295Z,-3.81
2019-01-09T19:57:35.459Z,-3.83
2019-01-09T20:00:05.822Z,-3.87
2019-01-09T20:02:34.004Z,-3.80
2019-01-09T20:05:02.085Z,-3.84
2019-01-09T20:07:29.960Z,-3.87
2019-01-09T20:09:58.048Z,-3.88
2019-01-09T20:12:26.229Z,-3.88
2019-01-09T20:14:54.279Z,-3.86
2019-01-09T20:17:22.331Z,-3.81
2019-01-09T20:19:50.543Z,-3.73
2019-01-09T20:22:18.722Z,-3.75
2019-01-09T20:24:47.102Z,-3.82
2019-01-09T20:27:15.116Z,-3.80
2019-01-09T20:29:43.484Z,-3.77
2019-01-09T20:32:12.224Z,-3.77
2019-01-09T20:34:40.195Z,-3.78
2019-01-09T20:37:08.385Z,-3.72
2019-01-09T20:39:36.931Z,-3.71
2019-01-09T20:42:05.127Z,-3.71
2019-01-09T20:44:33.358Z,-3.74
2019-01-09T20:47:01.539Z,-3.71
2019-01-09T20:49:29.826Z,-3.59
2019-01-09T20:51:57.946Z,-3.64
2019-01-09T20:54:26.109Z,-3.67
2019-01-09T20:56:54.454Z,-3.67
2019-01-09T20:59:22.387Z,-3.56
2019-01-09T21:01:50.274Z,-3.66
2019-01-09T21:04:18.565Z,-3.54
2019-01-09T21:06:46.535Z,-3.54
2019-01-09T21:09:14.538Z,-3.65
2019-01-09T21:11:44.501Z,-3.63
2019-01-09T21:14:12.574Z,-3.50
2019-01-09T21:16:40.675Z,-3.62
2019-01-09T21:19:08.314Z,-3.41
2019-01-09T21:21:36.409Z,-3.57
2019-01-09T21:24:04.881Z,-3.63
2019-01-09T21:26:33.024Z,-3.65
2019-01-09T21:29:01.746Z,-3.70
2019-01-09T21:31:29.795Z,-3.69
2019-01-09T21:33:57.833Z,-3.71
2019-01-09T21:36:26.727Z,-3.66
2019-01-09T21:38:54.738Z,-3.71
2019-01-09T21:41:23.011Z,-3.70
2019-01-09T21:43:51.078Z,-3.73
2019-01-09T21:46:19.079Z,-3.75
2019-01-09T21:48:47.014Z,-3.77
2019-01-09T21:51:15.092Z,-3.72
2019-01-09T21:53:43.109Z,-3.78
2019-01-09T21:56:11.442Z,-3.71
2019-01-09T21:58:39.128Z,-3.83
2019-01-09T22:01:07.064Z,-3.85
2019-01-09T22:03:35.131Z,-3.80
2019-01-09T22:06:03.078Z,-3.77
2019-01-09T22:08:30.965Z,-3.82
2019-01-09T22:10:58.958Z,-3.79
2019-01-09T22:13:27.115Z,-3.76
2019-01-09T22:15:54.977Z,-3.80
2019-01-09T22:18:22.947Z,-3.81
2019-01-09T22:20:50.912Z,-3.83
2019-01-09T22:23:18.775Z,-3.82
2019-01-09T22:25:46.862Z,-3.81
2019-01-09T22:28:14.433Z,-3.82
2019-01-09T22:30:42.484Z,-3.78
2019-01-09T22:33:10.452Z,-3.73
2019-01-09T22:35:41.695Z,-3.76
2019-01-09T22:38:08.231Z,-3.80
2019-01-09T22:40:36.406Z,-3.82
2019-01-09T22:43:04.469Z,-3.84
2019-01-09T22:45:32.452Z,-3.73
2019-01-09T22:48:00.523Z,-3.76
2019-01-09T22:50:28.548Z,-3.81
2019-01-09T22:52:56.567Z,-3.79
2019-01-09T22:55:24.738Z,-3.66
2019-01-09T22:57:52.922Z,-3.76
2019-01-09T23:00:35.826Z,-3.80
2019-01-09T23:03:04.865Z,-3.78
2019-01-09T23:05:33.103Z,-3.78
2019-01-09T23:08:01.168Z,-3.81
2019-01-09T23:10:29.113Z,-3.82
2019-01-09T23:12:57.211Z,-3.78
2019-01-09T23:15:24.960Z,-3.76
2019-01-09T23:17:52.829Z,-3.75
2019-01-09T23:20:20.905Z,-3.67
2019-01-09T23:22:48.936Z,-3.65
2019-01-09T23:25:16.836Z,-3.65
2019-01-09T23:27:44.616Z,-3.65
2019-01-09T23:30:12.692Z,-3.68
2019-01-09T23:32:40.842Z,-3.63
2019-01-09T23:35:09.030Z,-3.65
2019-01-09T23:37:37.407Z,-3.68
2019-01-09T23:40:05.697Z,-3.62
2019-01-09T23:42:33.751Z,-3.61
2019-01-09T23:45:01.729Z,-3.40
2019-01-09T23:47:29.898Z,-3.46
2019-01-09T23:49:57.775Z,-3.46
2019-01-09T23:52:26.072Z,-3.60
2019-01-09T23:54:54.030Z,-3.61
2019-01-09T23:57:22.081Z,-3.64
2019-01-09T23:59:49.957Z,-3.67
